Startpagina
METAR-TAF:

METAR-TAF

Vliegvelden :

Luchthaven Tallinn Lennart Meri

Tallinn, Estland

breedte: 59-23N, lengte: 024-35E, hoogte: 44 m

Actueel weer

Dit bericht is 18 minuten geleden gemaakt, om 13:20 UTC
Wind 9 kt uit het oostzuidoosten
Temperatuur -1°C
Vochtigheid 74%
Druk 1029 hPa
Zicht 10 km of meer
Geheel bewolkt op 1800 ft

METAR: EETN 221320Z 12009KT 9999 OVC018 M01/M05 Q1029 R08/11//95 NOSIG

Tijdstip: 15:38 (13:38 UTC)

Verwachting

Dit bericht is 2 uur en het 8 minuten geleden gemaakt, om 11:30 UTC
Verwachting geldig van 22 om 12 UTC tot 23 om 12 UTC
Wind 12 kt uit het zuidzuidoosten
Zicht 10 km of meer
Gebroken wolken op 2500 ft

TAF: EETN 221130Z 2212/2312 15012KT 9999 BKN025

Waarnemingen en weersverwachtingen van meer dan 4000 vliegvelden (METAR en TAF).

De beschikbare stations zijn de gele en rode punten op de kaart.

Ga met uw muis naar het station om de naam te zien.

Klik dan om waarnemingen en weersverwachtingen te zien.

kaart wijzigen: klik op de groene knoppen met een zwart kruis om in te zoomen, op de groene knop met een streepje om uit te zoomen of op de groene pijlen voor aangrenzende kaarten.


METAR-TAF: